Time;durP1;ratioP1;P1;durP2;ratioP2;P2;SDS_P1;SDS_P2;PMS_P1;PMS_P2;Temp;Humidity;BMP_temperature;BMP_pressure;BME280_temperature;BME280_humidity;BME280_pressure;Samples;Min_cycle;Max_cycle;Signal;HPM_P1;HPM_P2
2021/12/08 00:01:24;;;;;;;1.63;1.00;;;17.90;78.60;;;;;;4992633;28;20129;-63
2021/12/08 00:03:51;;;;;;;1.95;0.77;;;17.80;78.60;;;;;;4989119;28;20038;-63
2021/12/08 00:06:17;;;;;;;1.90;0.90;;;17.80;78.60;;;;;;5011963;28;20129;-63
2021/12/08 00:08:49;;;;;;;1.90;1.08;;;17.70;78.70;;;;;;5003695;28;20473;-63
2021/12/08 00:13:59;;;;;;;2.70;0.95;;;17.70;78.80;;;;;;5007698;28;20040;-64
2021/12/08 00:16:26;;;;;;;2.53;0.98;;;17.60;78.80;;;;;;4999758;28;20054;-64
2021/12/08 00:18:57;;;;;;;2.28;0.98;;;17.60;78.90;;;;;;4991208;28;20046;-64
2021/12/08 00:21:25;;;;;;;1.00;0.77;;;17.50;78.90;;;;;;4994119;28;20499;-64
2021/12/08 00:23:51;;;;;;;1.25;0.90;;;17.50;78.90;;;;;;4993627;28;20468;-64
2021/12/08 00:26:18;;;;;;;2.13;1.00;;;17.50;79.00;;;;;;5013214;28;20050;-64
2021/12/08 00:28:44;;;;;;;1.25;0.85;;;17.50;79.10;;;;;;5007963;28;20136;-64
2021/12/08 00:31:11;;;;;;;2.13;1.00;;;17.40;79.10;;;;;;5000312;28;20064;-63
2021/12/08 00:33:37;;;;;;;1.40;0.90;;;17.40;79.10;;;;;;5011736;28;20124;-64
2021/12/08 00:36:04;;;;;;;3.92;1.27;;;17.40;79.20;;;;;;4993064;28;20042;-64
2021/12/08 00:38:30;;;;;;;2.22;0.90;;;17.30;79.20;;;;;;4986675;28;20049;-64
2021/12/08 00:40:57;;;;;;;2.45;1.05;;;17.30;79.20;;;;;;4998798;28;20049;-64
2021/12/08 00:43:23;;;;;;;2.60;1.05;;;17.30;79.30;;;;;;4998652;28;20570;-64
2021/12/08 00:45:50;;;;;;;1.58;0.80;;;17.20;79.30;;;;;;4999903;28;20046;-64
2021/12/08 00:48:16;;;;;;;1.77;0.93;;;17.20;79.40;;;;;;4995736;28;20567;-64
2021/12/08 00:50:43;;;;;;;1.35;0.85;;;17.10;79.40;;;;;;4993262;28;20517;-64
2021/12/08 00:53:09;;;;;;;1.85;0.93;;;17.10;79.50;;;;;;5011614;28;20042;-64
2021/12/08 00:55:36;;;;;;;2.10;0.90;;;17.10;79.50;;;;;;5010134;28;20056;-64
2021/12/08 00:58:02;;;;;;;1.30;0.70;;;17.10;79.60;;;;;;5006315;28;20054;-64
2021/12/08 01:00:29;;;;;;;2.30;0.85;;;17.00;79.60;;;;;;4990738;28;20077;-64
2021/12/08 01:02:55;;;;;;;1.38;0.93;;;17.00;79.60;;;;;;5001555;28;20053;-64
2021/12/08 01:05:22;;;;;;;1.63;0.80;;;17.00;79.70;;;;;;5009545;28;20480;-64
2021/12/08 01:07:48;;;;;;;2.58;0.80;;;16.90;79.70;;;;;;4999737;28;20047;-64
2021/12/08 01:10:15;;;;;;;1.60;0.95;;;16.90;79.80;;;;;;5010071;28;20074;-64
2021/12/08 01:12:41;;;;;;;2.05;0.90;;;16.90;79.80;;;;;;4998706;28;20057;-64
2021/12/08 01:15:08;;;;;;;1.75;0.90;;;16.80;79.80;;;;;;4985594;28;20038;-64
2021/12/08 01:17:34;;;;;;;2.10;1.08;;;16.80;79.90;;;;;;4991470;28;20078;-64
2021/12/08 01:20:01;;;;;;;2.08;0.90;;;16.80;79.90;;;;;;4996420;28;20054;-64
2021/12/08 01:22:27;;;;;;;1.23;0.80;;;16.80;79.90;;;;;;5000237;28;20046;-63
2021/12/08 01:24:53;;;;;;;2.03;0.95;;;16.80;80.00;;;;;;5011453;28;20582;-64
2021/12/08 01:27:20;;;;;;;1.42;0.82;;;16.70;80.00;;;;;;4991619;28;20046;-64
2021/12/08 01:29:48;;;;;;;1.30;0.70;;;16.70;80.10;;;;;;4993152;28;20081;-64
2021/12/08 01:32:14;;;;;;;1.70;0.75;;;16.70;80.10;;;;;;4993206;28;20049;-64
2021/12/08 01:34:41;;;;;;;1.38;0.80;;;16.60;80.10;;;;;;4993448;28;20050;-63
2021/12/08 01:37:07;;;;;;;1.77;0.90;;;16.60;80.20;;;;;;4999393;28;20221;-64
2021/12/08 01:39:34;;;;;;;3.85;1.05;;;16.60;80.20;;;;;;5010758;28;20486;-64
2021/12/08 01:42:00;;;;;;;1.75;0.93;;;16.60;80.20;;;;;;5009974;28;20419;-64
2021/12/08 01:47:11;;;;;;;2.25;0.95;;;16.50;80.30;;;;;;5000770;28;20036;-64
2021/12/08 01:49:37;;;;;;;1.55;0.85;;;16.50;80.30;;;;;;4992977;28;20511;-64
2021/12/08 01:52:04;;;;;;;1.67;0.90;;;16.50;80.40;;;;;;5001763;28;20041;-64
2021/12/08 01:54:30;;;;;;;2.35;0.90;;;16.40;80.30;;;;;;4997931;28;20066;-64
2021/12/08 01:57:00;;;;;;;2.20;0.80;;;16.40;80.40;;;;;;5008748;28;20042;-64
2021/12/08 01:59:27;;;;;;;1.80;0.80;;;16.40;80.50;;;;;;5005841;28;20129;-64
2021/12/08 02:01:53;;;;;;;2.30;0.73;;;16.40;80.60;;;;;;5000900;28;20494;-64
2021/12/08 02:04:20;;;;;;;2.10;0.80;;;16.40;80.50;;;;;;4999536;28;20050;-64
2021/12/08 02:06:46;;;;;;;1.88;0.82;;;16.30;80.60;;;;;;5002507;28;20120;-64
2021/12/08 02:09:13;;;;;;;1.88;0.80;;;16.30;80.60;;;;;;4993813;28;20046;-64
2021/12/08 02:11:39;;;;;;;1.65;0.90;;;16.30;80.70;;;;;;4998501;28;20133;-64
2021/12/08 02:14:06;;;;;;;1.63;0.80;;;16.20;80.70;;;;;;4997431;28;20097;-64
2021/12/08 02:16:32;;;;;;;1.73;0.80;;;16.20;80.70;;;;;;5011234;28;20130;-64
2021/12/08 02:18:59;;;;;;;2.45;1.00;;;16.20;80.70;;;;;;5000046;28;20046;-64
2021/12/08 02:21:25;;;;;;;1.85;0.80;;;16.20;80.70;;;;;;5007317;28;20057;-64
2021/12/08 02:23:52;;;;;;;3.40;0.98;;;16.20;80.70;;;;;;5000320;28;20083;-64
2021/12/08 02:26:18;;;;;;;1.80;0.80;;;16.20;80.70;;;;;;5005199;28;20137;-64
2021/12/08 02:28:45;;;;;;;1.52;0.80;;;16.20;80.70;;;;;;4996534;28;20495;-64
2021/12/08 02:31:15;;;;;;;1.83;0.80;;;16.10;80.60;;;;;;5006673;28;20045;-64
2021/12/08 02:47:32;;;;;;;2.00;0.77;;;16.10;80.80;;;;;;5007669;28;20471;-64
2021/12/08 02:49:58;;;;;;;1.35;0.60;;;16.10;80.80;;;;;;4983554;28;20130;-64
2021/12/08 02:52:25;;;;;;;1.42;0.70;;;16.00;80.80;;;;;;4985398;28;20074;-64
2021/12/08 02:54:51;;;;;;;2.05;0.90;;;16.00;80.80;;;;;;4998183;28;20129;-64
2021/12/08 02:57:18;;;;;;;0.98;0.70;;;16.00;80.80;;;;;;4995170;28;20602;-64
2021/12/08 02:59:44;;;;;;;1.23;0.80;;;16.00;80.80;;;;;;5010322;28;20092;-64
2021/12/08 03:02:11;;;;;;;2.92;0.80;;;16.10;80.80;;;;;;4987766;28;20141;-63
2021/12/08 03:04:37;;;;;;;2.03;0.70;;;16.00;80.70;;;;;;4990370;28;20129;-64
2021/12/08 03:07:04;;;;;;;1.58;0.65;;;16.00;80.80;;;;;;4988238;28;20046;-64
2021/12/08 03:09:30;;;;;;;1.90;0.77;;;16.00;80.80;;;;;;4991611;28;20052;-64
2021/12/08 03:11:57;;;;;;;1.48;0.73;;;16.00;80.80;;;;;;4998191;28;20065;-63
2021/12/08 03:14:25;;;;;;;1.30;0.75;;;16.00;80.80;;;;;;5010645;28;20053;-64
2021/12/08 03:16:51;;;;;;;1.70;0.70;;;16.00;80.80;;;;;;5001769;28;20053;-64
2021/12/08 03:19:18;;;;;;;1.30;0.60;;;16.00;80.80;;;;;;4988244;28;20134;-64
2021/12/08 03:21:44;;;;;;;1.20;0.70;;;16.00;80.80;;;;;;4987136;28;20097;-64
2021/12/08 03:24:19;;;;;;;1.23;0.60;;;16.00;80.80;;;;;;4991736;28;20133;-64
2021/12/08 03:26:51;;;;;;;1.42;0.60;;;16.00;80.80;;;;;;4972754;28;20086;-63
2021/12/08 03:29:32;;;;;;;0.93;0.50;;;16.00;80.80;;;;;;4975960;28;20070;-63
2021/12/08 03:32:07;;;;;;;1.45;0.50;;;16.00;80.80;;;;;;4992640;28;20442;-63
2021/12/08 03:34:35;;;;;;;1.17;0.60;;;16.00;80.80;;;;;;4994746;28;20049;-64
2021/12/08 03:37:02;;;;;;;1.52;0.60;;;16.00;80.80;;;;;;4988231;28;20491;-64
2021/12/08 03:39:28;;;;;;;0.80;0.50;;;16.00;80.80;;;;;;4987417;28;20106;-64
2021/12/08 03:41:54;;;;;;;1.10;0.45;;;16.00;80.80;;;;;;4995126;28;20125;-64
2021/12/08 03:44:21;;;;;;;1.33;0.68;;;16.00;80.70;;;;;;4984330;28;20142;-63
2021/12/08 03:46:47;;;;;;;2.88;0.85;;;16.00;80.80;;;;;;4980392;28;20543;-63
2021/12/08 03:49:14;;;;;;;1.05;0.50;;;16.00;80.80;;;;;;4995419;28;20145;-63
2021/12/08 03:51:40;;;;;;;1.38;0.60;;;16.00;80.80;;;;;;5008662;28;20052;-63
2021/12/08 03:54:07;;;;;;;1.13;0.50;;;16.00;80.80;;;;;;5014817;28;20140;-64
2021/12/08 03:56:33;;;;;;;1.15;0.50;;;16.00;80.80;;;;;;4989748;28;20054;-64
2021/12/08 03:59:00;;;;;;;0.77;0.50;;;16.00;80.80;;;;;;4994402;28;20055;-64
2021/12/08 04:01:26;;;;;;;0.70;0.50;;;16.00;80.80;;;;;;5006186;28;20046;-64
2021/12/08 04:03:54;;;;;;;1.27;0.50;;;16.00;80.80;;;;;;4996232;28;20149;-63
2021/12/08 04:06:30;;;;;;;1.10;0.40;;;16.00;80.80;;;;;;4992700;28;20066;-64
2021/12/08 04:08:57;;;;;;;1.08;0.50;;;16.10;80.80;;;;;;4975421;28;20043;-64
2021/12/08 04:11:23;;;;;;;1.25;0.57;;;16.00;80.80;;;;;;4991768;28;20502;-64
2021/12/08 04:13:50;;;;;;;0.85;0.47;;;16.00;80.80;;;;;;5008182;28;20232;-63
2021/12/08 04:16:16;;;;;;;1.45;0.60;;;16.00;80.80;;;;;;4995512;28;20048;-64
2021/12/08 04:18:43;;;;;;;1.58;0.60;;;16.00;80.80;;;;;;5002667;28;20041;-63
2021/12/08 04:21:09;;;;;;;1.10;0.60;;;16.00;80.80;;;;;;5009978;28;20402;-64
2021/12/08 04:23:38;;;;;;;1.65;0.77;;;16.00;80.80;;;;;;4991091;28;20050;-64
2021/12/08 04:26:05;;;;;;;0.75;0.47;;;16.00;80.90;;;;;;4989334;28;20042;-64
2021/12/08 04:28:31;;;;;;;1.35;0.75;;;16.00;80.90;;;;;;5007512;28;20085;-64
2021/12/08 04:30:57;;;;;;;1.15;0.60;;;16.00;80.80;;;;;;5013868;28;20052;-64
2021/12/08 04:33:24;;;;;;;1.00;0.40;;;16.00;80.80;;;;;;4993005;28;20546;-64
2021/12/08 04:35:51;;;;;;;1.35;0.50;;;16.00;80.80;;;;;;5009061;28;20144;-64
2021/12/08 04:38:20;;;;;;;1.17;0.47;;;16.00;80.80;;;;;;4993040;28;20158;-64
2021/12/08 04:40:56;;;;;;;0.90;0.43;;;16.00;80.90;;;;;;5006246;28;20488;-64
2021/12/08 04:43:28;;;;;;;1.40;0.55;;;16.00;80.90;;;;;;5000683;28;20500;-64
2021/12/08 04:46:02;;;;;;;0.93;0.50;;;16.00;80.80;;;;;;4995546;28;20045;-64
2021/12/08 04:48:43;;;;;;;1.17;0.50;;;16.00;80.80;;;;;;4992287;28;20510;-64
2021/12/08 04:51:27;;;;;;;1.42;0.65;;;16.00;80.80;;;;;;4984181;28;20065;-64
2021/12/08 05:00:16;;;;;;;;;;;16.00;80.90;;;;;;4993568;28;20041;-64
2021/12/08 05:02:35;;;;;;;0.90;0.50;;;16.00;80.80;;;;;;4991753;28;20064;-64
2021/12/08 05:05:15;;;;;;;0.80;0.30;;;16.00;80.90;;;;;;4995485;28;20070;-64
2021/12/08 05:07:55;;;;;;;1.05;0.52;;;16.00;80.90;;;;;;4988938;28;20057;-64
2021/12/08 05:10:22;;;;;;;1.73;0.52;;;16.00;80.90;;;;;;4989021;28;20092;-64
2021/12/08 05:12:48;;;;;;;0.93;0.40;;;16.00;80.90;;;;;;4991437;28;20083;-64
2021/12/08 05:15:15;;;;;;;0.73;0.50;;;16.00;80.90;;;;;;4991559;28;20052;-64
2021/12/08 05:17:41;;;;;;;1.15;0.40;;;16.10;81.00;;;;;;4983624;28;20624;-64
2021/12/08 05:20:08;;;;;;;1.25;0.57;;;16.10;80.90;;;;;;4995535;28;20045;-64
2021/12/08 05:22:34;;;;;;;0.95;0.45;;;16.10;80.90;;;;;;4997292;28;20050;-63
2021/12/08 05:25:01;;;;;;;1.08;0.43;;;16.10;80.90;;;;;;5011738;28;20038;-64
2021/12/08 05:27:27;;;;;;;0.65;0.35;;;16.00;80.90;;;;;;4998043;28;20038;-64
2021/12/08 05:29:54;;;;;;;0.85;0.40;;;16.00;81.00;;;;;;4999162;28;20077;-63
2021/12/08 05:32:20;;;;;;;0.80;0.32;;;16.10;81.00;;;;;;4996369;28;20046;-64
2021/12/08 05:34:47;;;;;;;0.55;0.38;;;16.10;80.90;;;;;;5010069;28;20056;-64
2021/12/08 05:37:13;;;;;;;1.25;0.50;;;16.10;81.00;;;;;;4997774;28;20530;-64
2021/12/08 05:39:40;;;;;;;0.70;0.40;;;16.00;81.00;;;;;;5010338;28;20417;-64
2021/12/08 05:42:06;;;;;;;1.33;0.55;;;16.10;81.10;;;;;;5001638;28;20034;-64
2021/12/08 05:44:32;;;;;;;0.70;0.50;;;16.10;81.00;;;;;;4992680;28;20122;-64
2021/12/08 05:46:59;;;;;;;1.40;0.40;;;16.10;81.00;;;;;;4985416;28;20146;-64
2021/12/08 05:49:25;;;;;;;0.85;0.40;;;16.00;81.00;;;;;;5001855;28;20414;-63
2021/12/08 05:51:52;;;;;;;0.90;0.50;;;16.10;81.10;;;;;;4997104;28;20053;-64
2021/12/08 05:54:18;;;;;;;0.80;0.40;;;16.10;81.10;;;;;;5003806;28;20140;-64
2021/12/08 05:56:45;;;;;;;1.63;0.50;;;16.10;81.00;;;;;;5005355;28;20490;-64
2021/12/08 05:59:11;;;;;;;0.65;0.40;;;16.10;81.00;;;;;;5003485;28;20072;-64
2021/12/08 06:01:38;;;;;;;0.80;0.40;;;16.10;81.10;;;;;;5001361;28;20046;-63
2021/12/08 06:04:04;;;;;;;0.45;0.32;;;16.00;81.10;;;;;;5005262;28;20042;-64
2021/12/08 06:06:31;;;;;;;0.82;0.40;;;16.10;81.10;;;;;;4983484;28;20047;-63
2021/12/08 06:08:57;;;;;;;0.73;0.50;;;16.10;81.10;;;;;;4999913;28;20121;-63
2021/12/08 06:11:24;;;;;;;0.85;0.45;;;16.10;81.10;;;;;;4978233;28;20137;-63
2021/12/08 06:13:51;;;;;;;0.55;0.40;;;16.00;81.10;;;;;;4976102;28;20061;-64
2021/12/08 06:16:19;;;;;;;0.82;0.30;;;16.00;81.10;;;;;;4987979;28;20053;-64
2021/12/08 06:18:48;;;;;;;0.30;0.20;;;16.10;81.10;;;;;;4992212;28;20058;-64
2021/12/08 06:21:14;;;;;;;0.52;0.30;;;16.10;81.10;;;;;;4986517;28;20161;-64
2021/12/08 06:23:40;;;;;;;1.42;0.50;;;16.10;81.10;;;;;;4993744;28;20513;-64
2021/12/08 06:26:07;;;;;;;1.25;0.47;;;16.10;81.10;;;;;;4995300;28;20050;-64
2021/12/08 06:28:33;;;;;;;0.50;0.30;;;16.10;81.20;;;;;;4983425;28;20142;-64
2021/12/08 06:31:00;;;;;;;1.98;0.47;;;16.10;81.10;;;;;;4984751;28;20485;-64
2021/12/08 06:33:26;;;;;;;0.50;0.32;;;16.10;81.10;;;;;;4976190;28;20057;-64
2021/12/08 06:35:53;;;;;;;1.05;0.50;;;16.10;81.10;;;;;;4979428;28;20053;-63
2021/12/08 06:38:19;;;;;;;0.70;0.45;;;16.10;81.10;;;;;;4979087;28;20137;-63
2021/12/08 06:40:46;;;;;;;1.13;0.47;;;16.10;81.10;;;;;;4978530;28;20133;-63
2021/12/08 06:43:12;;;;;;;0.60;0.30;;;16.10;81.10;;;;;;4980024;28;20133;-64
2021/12/08 06:45:39;;;;;;;0.63;0.40;;;16.10;81.10;;;;;;4991604;28;20133;-63
2021/12/08 06:48:05;;;;;;;0.60;0.40;;;16.10;81.10;;;;;;4982848;28;20419;-63
2021/12/08 06:50:32;;;;;;;0.60;0.30;;;16.10;81.10;;;;;;4981954;28;20117;-64
2021/12/08 06:52:58;;;;;;;1.05;0.40;;;16.10;81.10;;;;;;4981195;28;20146;-64
2021/12/08 06:55:25;;;;;;;0.50;0.30;;;16.10;81.10;;;;;;4992522;28;20444;-64
2021/12/08 06:57:51;;;;;;;1.02;0.60;;;16.10;81.10;;;;;;4980469;28;20132;-64
2021/12/08 07:00:22;;;;;;;0.47;0.38;;;16.10;81.10;;;;;;4992326;28;20055;-64
2021/12/08 07:02:58;;;;;;;1.13;0.40;;;16.10;81.10;;;;;;4990886;28;20440;-64
2021/12/08 07:05:29;;;;;;;0.80;0.32;;;16.10;81.10;;;;;;4995362;28;20068;-63
2021/12/08 07:07:55;;;;;;;1.05;0.50;;;16.10;81.10;;;;;;4987003;28;20125;-63
2021/12/08 07:10:22;;;;;;;0.68;0.40;;;16.10;81.10;;;;;;4991139;28;20046;-64
2021/12/08 07:12:48;;;;;;;0.80;0.50;;;16.30;81.10;;;;;;4993995;28;20056;-64
2021/12/08 07:15:15;;;;;;;1.38;0.57;;;16.40;80.90;;;;;;4994650;28;20070;-64
2021/12/08 07:17:41;;;;;;;0.77;0.40;;;16.70;80.90;;;;;;4994362;28;20137;-64
2021/12/08 07:20:17;;;;;;;0.63;0.35;;;16.90;80.60;;;;;;4994142;28;20053;-64
2021/12/08 07:22:44;;;;;;;1.13;0.50;;;17.20;80.30;;;;;;4995282;28;20062;-64
2021/12/08 07:25:12;;;;;;;0.98;0.40;;;17.40;80.00;;;;;;4995189;28;20049;-64
2021/12/08 07:27:38;;;;;;;1.55;0.47;;;17.60;79.70;;;;;;4991787;28;20076;-64
2021/12/08 07:30:05;;;;;;;0.82;0.32;;;17.80;79.50;;;;;;4976142;28;20505;-64
2021/12/08 07:32:31;;;;;;;1.95;0.60;;;17.90;79.40;;;;;;4976082;28;20495;-63
2021/12/08 07:34:58;;;;;;;1.38;0.50;;;17.80;79.30;;;;;;4976263;28;20129;-63
2021/12/08 07:37:24;;;;;;;1.05;0.50;;;17.80;79.40;;;;;;4975914;28;20053;-63
2021/12/08 07:39:51;;;;;;;1.20;0.50;;;17.70;79.40;;;;;;4975942;28;20138;-63
2021/12/08 07:42:18;;;;;;;1.38;0.45;;;17.70;79.50;;;;;;4976280;28;20129;-63
2021/12/08 07:44:44;;;;;;;1.40;0.52;;;17.70;79.60;;;;;;4975924;28;20046;-63
2021/12/08 07:47:10;;;;;;;0.70;0.40;;;17.60;79.60;;;;;;4976064;28;20521;-64
2021/12/08 07:49:38;;;;;;;0.65;0.40;;;17.60;79.60;;;;;;4976303;28;20129;-64
2021/12/08 07:52:04;;;;;;;1.38;0.40;;;17.60;79.70;;;;;;4975753;28;20062;-64
2021/12/08 07:54:32;;;;;;;1.42;0.50;;;17.60;79.70;;;;;;4975642;28;20410;-64
2021/12/08 07:56:58;;;;;;;0.75;0.40;;;17.50;79.60;;;;;;4976086;28;20082;-63
2021/12/08 07:59:25;;;;;;;1.17;0.50;;;17.50;79.60;;;;;;4975686;28;20138;-63
2021/12/08 08:01:51;;;;;;;1.25;0.50;;;17.60;79.80;;;;;;4975499;28;20047;-64
2021/12/08 08:04:18;;;;;;;0.80;0.50;;;17.60;79.70;;;;;;4975970;28;20126;-64
2021/12/08 08:06:45;;;;;;;1.27;0.45;;;17.50;79.70;;;;;;4975906;28;20081;-64
2021/12/08 08:09:14;;;;;;;1.13;0.35;;;17.50;79.70;;;;;;4975550;28;20137;-63
2021/12/08 08:11:42;;;;;;;0.75;0.40;;;17.50;79.70;;;;;;4975795;28;20078;-63
2021/12/08 08:14:09;;;;;;;1.48;0.35;;;17.50;79.60;;;;;;4975608;28;20055;-63
2021/12/08 08:16:36;;;;;;;1.20;0.50;;;17.50;79.60;;;;;;4975143;28;20089;-64
2021/12/08 08:19:07;;;;;;;1.67;0.57;;;17.50;79.60;;;;;;4975016;28;20591;-64
2021/12/08 08:21:33;;;;;;;0.95;0.40;;;17.60;79.60;;;;;;4975383;28;20075;-64
2021/12/08 08:24:00;;;;;;;0.75;0.20;;;17.60;79.60;;;;;;4974340;28;20468;-63
2021/12/08 08:26:27;;;;;;;0.57;0.40;;;17.60;79.60;;;;;;4979849;28;20508;-63
2021/12/08 08:28:53;;;;;;;1.13;0.45;;;17.50;79.60;;;;;;4975580;28;20073;-63
2021/12/08 08:31:20;;;;;;;0.68;0.40;;;17.60;79.60;;;;;;4989247;28;20078;-64
2021/12/08 08:33:46;;;;;;;0.80;0.30;;;17.60;79.60;;;;;;4994346;28;20455;-63
2021/12/08 08:36:13;;;;;;;0.63;0.30;;;17.60;79.60;;;;;;4994625;28;20081;-64
2021/12/08 08:38:39;;;;;;;0.93;0.50;;;17.60;79.60;;;;;;4994763;28;20129;-63
2021/12/08 08:41:06;;;;;;;0.82;0.50;;;17.60;79.60;;;;;;4994501;28;20567;-63
2021/12/08 08:43:32;;;;;;;0.85;0.30;;;17.60;79.60;;;;;;4994694;28;20089;-64
2021/12/08 08:45:59;;;;;;;0.80;0.40;;;17.60;79.60;;;;;;4994377;28;20057;-63
2021/12/08 08:48:25;;;;;;;0.80;0.50;;;17.60;79.60;;;;;;4994264;28;20531;-63
2021/12/08 08:50:52;;;;;;;0.95;0.50;;;17.60;79.60;;;;;;4994193;28;20397;-64
2021/12/08 08:53:18;;;;;;;0.73;0.50;;;17.60;79.60;;;;;;4994324;28;20129;-64
2021/12/08 08:55:44;;;;;;;0.70;0.35;;;17.60;79.50;;;;;;4994487;28;20062;-64
2021/12/08 08:58:11;;;;;;;0.98;0.30;;;17.60;79.50;;;;;;4993787;28;20141;-64
2021/12/08 09:00:38;;;;;;;1.00;0.50;;;17.60;79.50;;;;;;4993831;28;20042;-64
2021/12/08 09:03:04;;;;;;;0.82;0.20;;;17.70;79.60;;;;;;4994346;28;20073;-64
2021/12/08 09:05:31;;;;;;;1.33;0.50;;;17.60;79.50;;;;;;4994169;28;20130;-64
2021/12/08 09:07:58;;;;;;;0.50;0.30;;;17.70;79.50;;;;;;4994050;28;20084;-64
2021/12/08 09:10:24;;;;;;;1.05;0.40;;;17.70;79.50;;;;;;4993966;28;20595;-64
2021/12/08 09:12:51;;;;;;;1.33;0.52;;;17.70;79.40;;;;;;4994021;28;20145;-64
2021/12/08 09:15:17;;;;;;;0.70;0.50;;;17.70;79.50;;;;;;4993984;28;20050;-64
2021/12/08 09:17:44;;;;;;;0.57;0.30;;;17.70;79.50;;;;;;4989951;28;20046;-64
2021/12/08 09:20:10;;;;;;;0.95;0.45;;;17.70;79.50;;;;;;4979078;28;20109;-64
2021/12/08 09:22:37;;;;;;;0.90;0.30;;;17.80;79.40;;;;;;4974352;28;20101;-64
2021/12/08 09:25:03;;;;;;;1.13;0.45;;;17.80;79.40;;;;;;4984249;28;20082;-64
2021/12/08 09:27:29;;;;;;;0.85;0.43;;;17.80;79.40;;;;;;4993589;28;20505;-63
2021/12/08 09:29:57;;;;;;;0.82;0.50;;;17.80;79.40;;;;;;4993502;28;20124;-63
2021/12/08 09:32:24;;;;;;;0.40;0.30;;;17.80;79.40;;;;;;4993363;28;20054;-63
2021/12/08 09:34:55;;;;;;;0.63;0.40;;;17.80;79.40;;;;;;4993449;28;20046;-64
2021/12/08 09:37:21;;;;;;;1.00;0.50;;;17.80;79.40;;;;;;4993594;28;20097;-64
2021/12/08 09:39:48;;;;;;;0.95;0.40;;;17.80;79.30;;;;;;4993373;28;20074;-64
2021/12/08 09:42:14;;;;;;;1.45;0.52;;;17.80;79.30;;;;;;4993364;28;20088;-64
2021/12/08 09:44:41;;;;;;;1.15;0.57;;;17.90;79.30;;;;;;4993283;28;20049;-64
2021/12/08 09:47:07;;;;;;;1.15;0.50;;;17.90;79.30;;;;;;4993465;28;20135;-64
2021/12/08 09:49:35;;;;;;;1.15;0.50;;;18.00;79.30;;;;;;4993398;28;20072;-64
2021/12/08 09:52:01;;;;;;;0.65;0.40;;;18.00;79.30;;;;;;4993401;28;20141;-64
2021/12/08 09:54:28;;;;;;;1.48;0.30;;;18.00;79.20;;;;;;4993123;28;20050;-64
2021/12/08 09:56:54;;;;;;;0.80;0.32;;;18.00;79.10;;;;;;4993108;28;20150;-64
2021/12/08 09:59:22;;;;;;;0.88;0.45;;;18.00;79.10;;;;;;4992890;28;20054;-65
2021/12/08 10:01:50;;;;;;;1.00;0.40;;;18.10;79.30;;;;;;4992918;28;20078;-64
2021/12/08 10:04:17;;;;;;;0.60;0.30;;;18.00;79.20;;;;;;4993159;28;20077;-65
2021/12/08 10:06:45;;;;;;;1.27;0.52;;;18.00;79.30;;;;;;4993253;28;20090;-64
2021/12/08 10:09:11;;;;;;;0.95;0.47;;;18.00;79.30;;;;;;4993115;28;20050;-64
2021/12/08 10:11:38;;;;;;;0.68;0.30;;;18.00;79.40;;;;;;4992908;28;20550;-64
2021/12/08 10:14:05;;;;;;;1.30;0.50;;;18.00;79.40;;;;;;4978013;28;20082;-64
2021/12/08 10:16:32;;;;;;;0.90;0.40;;;18.00;79.40;;;;;;4974137;28;20047;-64
2021/12/08 10:18:59;;;;;;;0.95;0.40;;;18.00;79.50;;;;;;4980013;28;20093;-64
2021/12/08 10:21:25;;;;;;;0.90;0.40;;;17.90;79.50;;;;;;4993054;28;20144;-64
2021/12/08 10:23:52;;;;;;;0.80;0.40;;;17.90;79.50;;;;;;4992830;28;20081;-63
2021/12/08 10:26:18;;;;;;;0.93;0.43;;;17.90;79.60;;;;;;4993014;28;20050;-64
2021/12/08 10:28:45;;;;;;;0.70;0.32;;;17.80;79.60;;;;;;4992915;28;20130;-64
2021/12/08 10:31:13;;;;;;;0.70;0.30;;;17.90;79.70;;;;;;4985547;28;20511;-64
2021/12/08 10:33:49;;;;;;;1.35;0.57;;;17.90;79.70;;;;;;4973176;28;20057;-64
2021/12/08 10:36:37;;;;;;;0.73;0.40;;;17.80;79.70;;;;;;4973327;28;20448;-64
2021/12/08 10:39:03;;;;;;;1.02;0.40;;;17.80;79.80;;;;;;4973301;28;20047;-64
2021/12/08 10:41:30;;;;;;;0.68;0.40;;;17.80;79.80;;;;;;4975985;28;20042;-64
2021/12/08 10:43:56;;;;;;;0.80;0.40;;;17.80;79.80;;;;;;4977076;28;20050;-64
2021/12/08 10:46:23;;;;;;;1.55;0.50;;;17.80;79.80;;;;;;4977432;28;20043;-64
2021/12/08 10:48:53;;;;;;;2.35;0.82;;;17.80;79.90;;;;;;4977195;28;20133;-64
2021/12/08 10:56:48;;;;;;;1.42;0.50;;;17.80;80.00;;;;;;4977056;28;20101;-64
2021/12/08 10:59:15;;;;;;;0.75;0.40;;;17.80;80.00;;;;;;4976812;28;20142;-64
2021/12/08 11:01:41;;;;;;;1.45;0.43;;;17.90;80.00;;;;;;4975610;28;20804;-64
2021/12/08 11:04:08;;;;;;;1.33;0.40;;;17.90;80.00;;;;;;4981476;28;20050;-64
2021/12/08 11:06:34;;;;;;;1.10;0.50;;;17.90;80.00;;;;;;4976915;28;20121;-64
2021/12/08 11:09:01;;;;;;;0.70;0.40;;;17.90;80.00;;;;;;4980177;28;20128;-64
2021/12/08 11:11:29;;;;;;;1.58;0.50;;;17.90;80.00;;;;;;4977393;28;20081;-63
2021/12/08 11:13:55;;;;;;;1.95;0.45;;;18.00;80.00;;;;;;4977939;28;20133;-63
2021/12/08 11:16:22;;;;;;;1.30;0.52;;;18.00;80.00;;;;;;4996357;28;20137;-63
2021/12/08 11:18:49;;;;;;;1.00;0.52;;;18.00;80.00;;;;;;4994830;28;20053;-64
2021/12/08 11:21:18;;;;;;;1.52;0.50;;;18.00;80.00;;;;;;4994056;28;20057;-64
2021/12/08 11:23:46;;;;;;;1.52;0.63;;;18.10;80.00;;;;;;4995515;28;20050;-64
2021/12/08 11:26:13;;;;;;;1.17;0.50;;;18.10;80.00;;;;;;4989917;28;20141;-64
2021/12/08 11:28:40;;;;;;;0.85;0.45;;;18.20;79.90;;;;;;4990076;28;20053;-64
2021/12/08 11:31:07;;;;;;;1.42;0.52;;;18.30;79.80;;;;;;4977499;28;20043;-64
2021/12/08 11:33:36;;;;;;;0.63;0.35;;;18.50;79.60;;;;;;4976850;28;20046;-64
2021/12/08 11:36:02;;;;;;;0.93;0.50;;;18.70;79.50;;;;;;4995541;28;20487;-64
2021/12/08 11:38:29;;;;;;;0.73;0.30;;;18.90;79.20;;;;;;4995089;28;20073;-65
2021/12/08 11:40:55;;;;;;;1.63;0.40;;;19.10;79.00;;;;;;4986092;28;20061;-65
2021/12/08 11:43:22;;;;;;;1.20;0.50;;;19.30;78.80;;;;;;4990651;28;20487;-64
2021/12/08 11:45:48;;;;;;;1.00;0.40;;;19.60;78.60;;;;;;4992812;28;20134;-65
2021/12/08 11:48:15;;;;;;;1.25;0.52;;;19.70;78.30;;;;;;4986887;28;20045;-64
2021/12/08 11:50:41;;;;;;;0.75;0.38;;;19.80;78.10;;;;;;4992614;28;20052;-64
2021/12/08 11:53:08;;;;;;;1.05;0.40;;;19.90;77.90;;;;;;4987199;28;20520;-64
2021/12/08 11:55:34;;;;;;;0.93;0.45;;;20.10;77.90;;;;;;4989946;28;20129;-64
2021/12/08 11:58:02;;;;;;;0.70;0.30;;;20.10;77.70;;;;;;4985653;28;20065;-65
2021/12/08 12:00:30;;;;;;;0.93;0.40;;;20.20;77.70;;;;;;4983444;28;20050;-64
2021/12/08 12:02:58;;;;;;;0.70;0.40;;;20.20;77.60;;;;;;4992331;28;20492;-64
2021/12/08 12:05:25;;;;;;;1.13;0.35;;;20.30;77.50;;;;;;4992010;28;20054;-64
2021/12/08 12:07:51;;;;;;;0.70;0.30;;;20.30;77.50;;;;;;4991015;28;20422;-64
2021/12/08 12:10:18;;;;;;;1.63;0.40;;;20.40;77.60;;;;;;4989563;28;20078;-65
2021/12/08 12:12:44;;;;;;;0.80;0.40;;;20.40;77.50;;;;;;4992218;28;20133;-65
2021/12/08 12:15:11;;;;;;;1.38;0.40;;;20.30;77.40;;;;;;4991110;28;20121;-65
2021/12/08 12:17:37;;;;;;;1.85;0.40;;;20.40;77.50;;;;;;4992314;28;20125;-64
2021/12/08 12:20:03;;;;;;;0.70;0.30;;;20.40;77.40;;;;;;4991260;28;20046;-65
2021/12/08 12:22:30;;;;;;;0.75;0.40;;;20.40;77.40;;;;;;4991641;28;20112;-65
2021/12/08 12:24:57;;;;;;;0.90;0.40;;;20.40;77.40;;;;;;4990173;28;20047;-63
2021/12/08 12:27:23;;;;;;;1.55;0.50;;;20.40;77.40;;;;;;4991187;28;20141;-64
2021/12/08 12:29:51;;;;;;;0.77;0.40;;;20.40;77.40;;;;;;4993864;28;20129;-64
2021/12/08 12:32:19;;;;;;;0.88;0.40;;;20.40;77.40;;;;;;4994197;28;20046;-65
2021/12/08 12:34:45;;;;;;;0.85;0.35;;;20.40;77.60;;;;;;4993945;28;20061;-65
2021/12/08 12:37:11;;;;;;;2.03;0.47;;;20.30;77.70;;;;;;4993757;28;20046;-65
2021/12/08 12:39:38;;;;;;;1.38;0.52;;;20.10;77.80;;;;;;4993718;28;20562;-65
2021/12/08 12:42:10;;;;;;;1.80;0.60;;;20.00;77.90;;;;;;4993790;28;20125;-64
2021/12/08 12:44:37;;;;;;;1.23;0.45;;;19.90;78.00;;;;;;4993886;28;20089;-64
2021/12/08 12:47:03;;;;;;;2.42;0.32;;;19.80;78.10;;;;;;4993676;28;20046;-64
2021/12/08 12:49:30;;;;;;;0.90;0.40;;;19.70;78.20;;;;;;4993440;28;20097;-65
2021/12/08 12:51:56;;;;;;;2.00;0.40;;;19.70;78.30;;;;;;4991358;28;20519;-65
2021/12/08 12:54:23;;;;;;;2.08;0.45;;;19.60;78.40;;;;;;4989066;28;20056;-65
2021/12/08 12:56:49;;;;;;;1.35;0.68;;;19.60;78.40;;;;;;4993416;28;20105;-64
2021/12/08 12:59:20;;;;;;;0.80;0.30;;;19.50;78.40;;;;;;4993016;28;20381;-65
2021/12/08 13:01:48;;;;;;;1.30;0.43;;;19.50;78.50;;;;;;4993125;28;20056;-64
2021/12/08 13:04:14;;;;;;;0.93;0.40;;;19.50;78.60;;;;;;4993310;28;20073;-64
2021/12/08 13:06:41;;;;;;;1.08;0.40;;;19.40;78.60;;;;;;4993432;28;20039;-64
2021/12/08 13:09:07;;;;;;;1.10;0.40;;;19.40;78.70;;;;;;4993241;28;20133;-64
2021/12/08 13:11:42;;;;;;;0.80;0.40;;;19.40;78.70;;;;;;4982372;28;20534;-64
2021/12/08 13:14:08;;;;;;;1.35;0.32;;;19.40;78.70;;;;;;4973621;28;20496;-64
2021/12/08 13:16:35;;;;;;;1.08;0.40;;;19.40;78.70;;;;;;4973675;28;20085;-64
2021/12/08 13:19:01;;;;;;;0.80;0.30;;;19.30;78.70;;;;;;4973417;28;20133;-64